sensor_id;sensor_type;location;lat;lon;timestamp;temperature;humidity
4697;DHT22;2362;50.780;0.292;2023-04-24T00:00:57;8.20;99.90
4697;DHT22;2362;50.780;0.292;2023-04-24T00:03:23;8.20;99.90
4697;DHT22;2362;50.780;0.292;2023-04-24T00:05:49;8.20;99.90
4697;DHT22;2362;50.780;0.292;2023-04-24T00:08:15;8.20;99.90
4697;DHT22;2362;50.780;0.292;2023-04-24T00:10:41;8.20;99.90
4697;DHT22;2362;50.780;0.292;2023-04-24T00:13:07;8.20;99.90
4697;DHT22;2362;50.780;0.292;2023-04-24T00:15:33;8.10;99.90
4697;DHT22;2362;50.780;0.292;2023-04-24T00:17:58;8.10;99.90
4697;DHT22;2362;50.780;0.292;2023-04-24T00:20:24;8.10;99.90
4697;DHT22;2362;50.780;0.292;2023-04-24T00:22:50;8.00;99.90
4697;DHT22;2362;50.780;0.292;2023-04-24T00:25:18;8.00;99.90
4697;DHT22;2362;50.780;0.292;2023-04-24T00:27:44;8.00;99.90
4697;DHT22;2362;50.780;0.292;2023-04-24T00:30:10;8.00;99.90
4697;DHT22;2362;50.780;0.292;2023-04-24T00:32:36;7.90;99.90
4697;DHT22;2362;50.780;0.292;2023-04-24T00:35:01;7.90;99.90
4697;DHT22;2362;50.780;0.292;2023-04-24T00:37:27;7.90;99.90
4697;DHT22;2362;50.780;0.292;2023-04-24T00:39:54;7.90;99.90
4697;DHT22;2362;50.780;0.292;2023-04-24T00:42:20;7.90;99.90
4697;DHT22;2362;50.780;0.292;2023-04-24T00:44:46;7.80;99.90
4697;DHT22;2362;50.780;0.292;2023-04-24T00:47:12;7.80;99.90
4697;DHT22;2362;50.780;0.292;2023-04-24T00:49:38;7.90;99.90
4697;DHT22;2362;50.780;0.292;2023-04-24T00:52:04;7.90;99.90
4697;DHT22;2362;50.780;0.292;2023-04-24T00:54:34;7.90;99.90
4697;DHT22;2362;50.780;0.292;2023-04-24T00:57:02;7.80;99.90
4697;DHT22;2362;50.780;0.292;2023-04-24T00:59:27;7.80;99.90
4697;DHT22;2362;50.780;0.292;2023-04-24T01:01:53;7.80;99.90
4697;DHT22;2362;50.780;0.292;2023-04-24T01:04:20;7.80;99.90
4697;DHT22;2362;50.780;0.292;2023-04-24T01:06:46;7.80;99.90
4697;DHT22;2362;50.780;0.292;2023-04-24T01:09:12;7.90;99.90
4697;DHT22;2362;50.780;0.292;2023-04-24T01:11:38;7.80;99.90
4697;DHT22;2362;50.780;0.292;2023-04-24T01:14:03;7.80;99.90
4697;DHT22;2362;50.780;0.292;2023-04-24T01:16:29;7.80;99.90
4697;DHT22;2362;50.780;0.292;2023-04-24T01:18:55;7.70;99.90
4697;DHT22;2362;50.780;0.292;2023-04-24T01:21:21;7.70;99.90
4697;DHT22;2362;50.780;0.292;2023-04-24T01:23:49;7.70;99.90
4697;DHT22;2362;50.780;0.292;2023-04-24T01:26:16;7.60;99.90
4697;DHT22;2362;50.780;0.292;2023-04-24T01:29:07;7.60;99.90
4697;DHT22;2362;50.780;0.292;2023-04-24T01:31:58;7.60;99.90
4697;DHT22;2362;50.780;0.292;2023-04-24T01:34:25;7.60;99.90
4697;DHT22;2362;50.780;0.292;2023-04-24T01:36:51;7.50;99.90
4697;DHT22;2362;50.780;0.292;2023-04-24T01:39:16;7.50;99.90
4697;DHT22;2362;50.780;0.292;2023-04-24T01:41:42;7.50;99.90
4697;DHT22;2362;50.780;0.292;2023-04-24T01:44:08;7.50;99.90
4697;DHT22;2362;50.780;0.292;2023-04-24T01:46:34;7.60;99.90
4697;DHT22;2362;50.780;0.292;2023-04-24T01:49:01;7.60;99.90
4697;DHT22;2362;50.780;0.292;2023-04-24T01:51:28;7.60;99.90
4697;DHT22;2362;50.780;0.292;2023-04-24T01:53:53;7.60;99.90
4697;DHT22;2362;50.780;0.292;2023-04-24T01:56:20;7.60;99.90
4697;DHT22;2362;50.780;0.292;2023-04-24T01:58:47;7.60;99.90
4697;DHT22;2362;50.780;0.292;2023-04-24T02:01:20;7.60;99.90
4697;DHT22;2362;50.780;0.292;2023-04-24T02:04:11;7.50;99.90
4697;DHT22;2362;50.780;0.292;2023-04-24T02:07:02;7.50;99.90
4697;DHT22;2362;50.780;0.292;2023-04-24T02:09:28;7.50;99.90
4697;DHT22;2362;50.780;0.292;2023-04-24T02:11:53;7.50;99.90
4697;DHT22;2362;50.780;0.292;2023-04-24T02:14:19;7.60;99.90
4697;DHT22;2362;50.780;0.292;2023-04-24T02:16:44;7.50;99.90
4697;DHT22;2362;50.780;0.292;2023-04-24T02:19:11;7.40;99.90
4697;DHT22;2362;50.780;0.292;2023-04-24T02:21:36;7.40;99.90
4697;DHT22;2362;50.780;0.292;2023-04-24T02:24:02;7.40;99.90
4697;DHT22;2362;50.780;0.292;2023-04-24T02:26:28;7.40;99.90
4697;DHT22;2362;50.780;0.292;2023-04-24T02:28:53;7.40;99.90
4697;DHT22;2362;50.780;0.292;2023-04-24T02:31:19;7.30;99.90
4697;DHT22;2362;50.780;0.292;2023-04-24T02:33:45;7.30;99.90
4697;DHT22;2362;50.780;0.292;2023-04-24T02:36:10;7.30;99.90
4697;DHT22;2362;50.780;0.292;2023-04-24T02:38:36;7.30;99.90
4697;DHT22;2362;50.780;0.292;2023-04-24T02:41:27;7.30;99.90
4697;DHT22;2362;50.780;0.292;2023-04-24T02:44:22;7.30;99.90
4697;DHT22;2362;50.780;0.292;2023-04-24T02:47:13;7.30;99.90
4697;DHT22;2362;50.780;0.292;2023-04-24T02:49:40;7.30;99.90
4697;DHT22;2362;50.780;0.292;2023-04-24T02:52:07;7.40;99.90
4697;DHT22;2362;50.780;0.292;2023-04-24T02:54:32;7.50;99.90
4697;DHT22;2362;50.780;0.292;2023-04-24T02:56:58;7.60;99.90
4697;DHT22;2362;50.780;0.292;2023-04-24T02:59:24;7.70;99.90
4697;DHT22;2362;50.780;0.292;2023-04-24T03:01:50;7.80;99.90
4697;DHT22;2362;50.780;0.292;2023-04-24T03:04:15;7.90;99.90
4697;DHT22;2362;50.780;0.292;2023-04-24T03:06:41;7.80;99.90
4697;DHT22;2362;50.780;0.292;2023-04-24T03:09:07;7.80;99.90
4697;DHT22;2362;50.780;0.292;2023-04-24T03:11:33;7.70;99.90
4697;DHT22;2362;50.780;0.292;2023-04-24T03:13:58;7.60;99.90
4697;DHT22;2362;50.780;0.292;2023-04-24T03:16:24;7.60;99.90
4697;DHT22;2362;50.780;0.292;2023-04-24T03:18:51;7.50;99.90
4697;DHT22;2362;50.780;0.292;2023-04-24T03:21:17;7.40;99.90
4697;DHT22;2362;50.780;0.292;2023-04-24T03:23:44;7.30;99.90
4697;DHT22;2362;50.780;0.292;2023-04-24T03:26:10;7.30;99.90
4697;DHT22;2362;50.780;0.292;2023-04-24T03:28:36;7.40;99.90
4697;DHT22;2362;50.780;0.292;2023-04-24T03:31:03;7.40;99.90
4697;DHT22;2362;50.780;0.292;2023-04-24T03:33:29;7.40;99.90
4697;DHT22;2362;50.780;0.292;2023-04-24T03:35:54;7.40;99.90
4697;DHT22;2362;50.780;0.292;2023-04-24T03:38:20;7.40;99.90
4697;DHT22;2362;50.780;0.292;2023-04-24T03:40:45;7.40;99.90
4697;DHT22;2362;50.780;0.292;2023-04-24T03:43:11;7.30;99.90
4697;DHT22;2362;50.780;0.292;2023-04-24T03:45:37;7.30;99.90
4697;DHT22;2362;50.780;0.292;2023-04-24T03:48:02;7.40;99.90
4697;DHT22;2362;50.780;0.292;2023-04-24T03:50:28;7.30;99.90
4697;DHT22;2362;50.780;0.292;2023-04-24T03:52:54;7.30;99.90
4697;DHT22;2362;50.780;0.292;2023-04-24T03:55:20;7.30;99.90
4697;DHT22;2362;50.780;0.292;2023-04-24T03:57:46;7.40;99.90
4697;DHT22;2362;50.780;0.292;2023-04-24T04:00:12;7.50;99.90
4697;DHT22;2362;50.780;0.292;2023-04-24T04:02:38;7.50;99.90
4697;DHT22;2362;50.780;0.292;2023-04-24T04:05:03;7.50;99.90
4697;DHT22;2362;50.780;0.292;2023-04-24T04:07:29;7.60;99.90
4697;DHT22;2362;50.780;0.292;2023-04-24T04:09:55;7.50;99.90
4697;DHT22;2362;50.780;0.292;2023-04-24T04:12:21;7.50;99.90
4697;DHT22;2362;50.780;0.292;2023-04-24T04:14:46;7.40;99.90
4697;DHT22;2362;50.780;0.292;2023-04-24T04:17:12;7.30;99.90
4697;DHT22;2362;50.780;0.292;2023-04-24T04:19:37;7.20;99.90
4697;DHT22;2362;50.780;0.292;2023-04-24T04:22:03;7.10;99.90
4697;DHT22;2362;50.780;0.292;2023-04-24T04:24:31;7.10;99.90
4697;DHT22;2362;50.780;0.292;2023-04-24T04:26:57;7.00;99.90
4697;DHT22;2362;50.780;0.292;2023-04-24T04:29:23;7.00;99.90
4697;DHT22;2362;50.780;0.292;2023-04-24T04:31:49;7.10;99.90
4697;DHT22;2362;50.780;0.292;2023-04-24T04:34:15;7.00;99.90
4697;DHT22;2362;50.780;0.292;2023-04-24T04:36:41;7.00;99.90
4697;DHT22;2362;50.780;0.292;2023-04-24T04:39:08;7.00;99.90
4697;DHT22;2362;50.780;0.292;2023-04-24T04:41:59;7.00;99.90
4697;DHT22;2362;50.780;0.292;2023-04-24T04:44:51;7.00;99.90
4697;DHT22;2362;50.780;0.292;2023-04-24T04:47:17;7.10;99.90
4697;DHT22;2362;50.780;0.292;2023-04-24T04:49:43;7.10;99.90
4697;DHT22;2362;50.780;0.292;2023-04-24T04:52:09;7.10;99.90
4697;DHT22;2362;50.780;0.292;2023-04-24T04:54:35;7.10;99.90
4697;DHT22;2362;50.780;0.292;2023-04-24T04:57:01;7.20;99.90
4697;DHT22;2362;50.780;0.292;2023-04-24T04:59:27;7.10;99.90
4697;DHT22;2362;50.780;0.292;2023-04-24T05:01:52;7.20;99.90
4697;DHT22;2362;50.780;0.292;2023-04-24T05:04:18;7.20;99.90
4697;DHT22;2362;50.780;0.292;2023-04-24T05:06:44;7.20;99.90
4697;DHT22;2362;50.780;0.292;2023-04-24T05:09:10;7.20;99.90
4697;DHT22;2362;50.780;0.292;2023-04-24T05:11:35;7.10;99.90
4697;DHT22;2362;50.780;0.292;2023-04-24T05:14:01;7.20;99.90
4697;DHT22;2362;50.780;0.292;2023-04-24T05:16:27;7.20;99.90
4697;DHT22;2362;50.780;0.292;2023-04-24T05:18:52;7.10;99.90
4697;DHT22;2362;50.780;0.292;2023-04-24T05:21:18;7.10;99.90
4697;DHT22;2362;50.780;0.292;2023-04-24T05:23:44;7.20;99.90
4697;DHT22;2362;50.780;0.292;2023-04-24T05:26:09;7.10;99.90
4697;DHT22;2362;50.780;0.292;2023-04-24T05:28:35;7.20;99.90
4697;DHT22;2362;50.780;0.292;2023-04-24T05:31:02;7.20;99.90
4697;DHT22;2362;50.780;0.292;2023-04-24T05:33:28;7.20;99.90
4697;DHT22;2362;50.780;0.292;2023-04-24T05:35:54;7.30;99.90
4697;DHT22;2362;50.780;0.292;2023-04-24T05:38:20;7.30;99.90
4697;DHT22;2362;50.780;0.292;2023-04-24T05:40:45;7.40;99.90
4697;DHT22;2362;50.780;0.292;2023-04-24T05:43:12;7.40;99.90
4697;DHT22;2362;50.780;0.292;2023-04-24T05:45:38;7.50;99.90
4697;DHT22;2362;50.780;0.292;2023-04-24T05:48:05;7.60;99.90
4697;DHT22;2362;50.780;0.292;2023-04-24T05:50:31;7.90;99.90
4697;DHT22;2362;50.780;0.292;2023-04-24T05:52:57;8.30;99.90
4697;DHT22;2362;50.780;0.292;2023-04-24T05:55:27;8.70;99.90
4697;DHT22;2362;50.780;0.292;2023-04-24T05:57:53;9.10;99.90
4697;DHT22;2362;50.780;0.292;2023-04-24T06:00:19;9.50;99.90
4697;DHT22;2362;50.780;0.292;2023-04-24T06:02:46;9.80;99.90
4697;DHT22;2362;50.780;0.292;2023-04-24T06:05:12;10.00;99.90
4697;DHT22;2362;50.780;0.292;2023-04-24T06:07:38;10.20;99.90
4697;DHT22;2362;50.780;0.292;2023-04-24T06:10:04;10.50;99.90
4697;DHT22;2362;50.780;0.292;2023-04-24T06:12:30;10.80;99.90
4697;DHT22;2362;50.780;0.292;2023-04-24T06:14:56;11.00;99.90
4697;DHT22;2362;50.780;0.292;2023-04-24T06:17:21;11.30;99.90
4697;DHT22;2362;50.780;0.292;2023-04-24T06:19:47;11.40;99.90
4697;DHT22;2362;50.780;0.292;2023-04-24T06:22:38;11.50;99.90
4697;DHT22;2362;50.780;0.292;2023-04-24T06:25:06;11.80;99.90
4697;DHT22;2362;50.780;0.292;2023-04-24T06:27:32;12.10;99.90
4697;DHT22;2362;50.780;0.292;2023-04-24T06:29:58;12.30;99.90
4697;DHT22;2362;50.780;0.292;2023-04-24T06:32:24;12.50;99.90
4697;DHT22;2362;50.780;0.292;2023-04-24T06:34:53;12.90;99.90
4697;DHT22;2362;50.780;0.292;2023-04-24T06:37:19;12.80;99.90
4697;DHT22;2362;50.780;0.292;2023-04-24T06:39:46;12.60;99.90
4697;DHT22;2362;50.780;0.292;2023-04-24T06:42:12;12.70;99.90
4697;DHT22;2362;50.780;0.292;2023-04-24T06:44:37;12.50;99.90
4697;DHT22;2362;50.780;0.292;2023-04-24T06:47:12;12.20;99.90
4697;DHT22;2362;50.780;0.292;2023-04-24T06:49:39;12.60;99.90
4697;DHT22;2362;50.780;0.292;2023-04-24T06:52:05;12.60;99.90
4697;DHT22;2362;50.780;0.292;2023-04-24T06:54:32;12.70;99.90
4697;DHT22;2362;50.780;0.292;2023-04-24T06:56:59;12.40;99.90
4697;DHT22;2362;50.780;0.292;2023-04-24T06:59:29;12.50;99.90
4697;DHT22;2362;50.780;0.292;2023-04-24T07:01:55;12.50;99.90
4697;DHT22;2362;50.780;0.292;2023-04-24T07:04:21;12.70;99.90
4697;DHT22;2362;50.780;0.292;2023-04-24T07:06:47;12.60;99.90
4697;DHT22;2362;50.780;0.292;2023-04-24T07:09:14;12.40;99.90
4697;DHT22;2362;50.780;0.292;2023-04-24T07:11:41;12.40;99.90
4697;DHT22;2362;50.780;0.292;2023-04-24T07:14:07;12.60;99.90
4697;DHT22;2362;50.780;0.292;2023-04-24T07:16:33;12.80;99.90
4697;DHT22;2362;50.780;0.292;2023-04-24T07:18:59;12.80;99.90
4697;DHT22;2362;50.780;0.292;2023-04-24T07:21:25;12.90;99.90
4697;DHT22;2362;50.780;0.292;2023-04-24T07:23:52;12.50;99.90
4697;DHT22;2362;50.780;0.292;2023-04-24T07:26:43;12.50;99.90
4697;DHT22;2362;50.780;0.292;2023-04-24T07:29:33;12.60;99.90
4697;DHT22;2362;50.780;0.292;2023-04-24T07:32:25;12.70;99.90
4697;DHT22;2362;50.780;0.292;2023-04-24T07:34:50;12.80;99.90
4697;DHT22;2362;50.780;0.292;2023-04-24T07:37:16;12.80;99.90
4697;DHT22;2362;50.780;0.292;2023-04-24T07:39:42;12.70;99.90
4697;DHT22;2362;50.780;0.292;2023-04-24T07:42:08;12.90;99.90
4697;DHT22;2362;50.780;0.292;2023-04-24T07:44:33;13.10;99.90
4697;DHT22;2362;50.780;0.292;2023-04-24T07:46:59;13.10;99.90
4697;DHT22;2362;50.780;0.292;2023-04-24T07:49:25;13.00;99.90
4697;DHT22;2362;50.780;0.292;2023-04-24T07:51:51;12.90;99.90
4697;DHT22;2362;50.780;0.292;2023-04-24T07:54:16;12.90;99.90
4697;DHT22;2362;50.780;0.292;2023-04-24T07:56:43;13.00;99.90
4697;DHT22;2362;50.780;0.292;2023-04-24T07:59:09;13.30;99.90
4697;DHT22;2362;50.780;0.292;2023-04-24T08:01:36;13.40;99.90
4697;DHT22;2362;50.780;0.292;2023-04-24T08:04:02;13.50;99.90
4697;DHT22;2362;50.780;0.292;2023-04-24T08:06:28;13.60;99.90
4697;DHT22;2362;50.780;0.292;2023-04-24T08:08:59;13.50;99.90
4697;DHT22;2362;50.780;0.292;2023-04-24T08:11:26;13.20;99.90
4697;DHT22;2362;50.780;0.292;2023-04-24T08:13:52;13.50;99.90
4697;DHT22;2362;50.780;0.292;2023-04-24T08:16:17;13.50;99.90
4697;DHT22;2362;50.780;0.292;2023-04-24T08:18:43;13.30;99.90
4697;DHT22;2362;50.780;0.292;2023-04-24T08:21:09;13.60;99.90
4697;DHT22;2362;50.780;0.292;2023-04-24T08:23:34;13.30;99.90
4697;DHT22;2362;50.780;0.292;2023-04-24T08:26:00;13.60;99.90
4697;DHT22;2362;50.780;0.292;2023-04-24T08:28:26;13.50;99.90
4697;DHT22;2362;50.780;0.292;2023-04-24T08:30:51;13.40;99.90
4697;DHT22;2362;50.780;0.292;2023-04-24T08:33:21;13.20;99.90
4697;DHT22;2362;50.780;0.292;2023-04-24T08:35:47;13.40;99.90
4697;DHT22;2362;50.780;0.292;2023-04-24T08:38:13;13.40;99.90
4697;DHT22;2362;50.780;0.292;2023-04-24T08:40:38;13.20;99.90
4697;DHT22;2362;50.780;0.292;2023-04-24T08:43:05;12.80;99.90
4697;DHT22;2362;50.780;0.292;2023-04-24T08:45:32;12.10;99.90
4697;DHT22;2362;50.780;0.292;2023-04-24T08:47:58;12.20;99.90
4697;DHT22;2362;50.780;0.292;2023-04-24T08:50:25;12.50;99.90
4697;DHT22;2362;50.780;0.292;2023-04-24T08:52:51;12.70;99.90
4697;DHT22;2362;50.780;0.292;2023-04-24T08:55:20;12.60;99.90
4697;DHT22;2362;50.780;0.292;2023-04-24T08:57:50;12.50;99.90
4697;DHT22;2362;50.780;0.292;2023-04-24T09:00:18;12.30;99.90
4697;DHT22;2362;50.780;0.292;2023-04-24T09:02:45;12.40;99.90
4697;DHT22;2362;50.780;0.292;2023-04-24T09:05:13;12.40;99.90
4697;DHT22;2362;50.780;0.292;2023-04-24T09:07:41;12.20;99.90
4697;DHT22;2362;50.780;0.292;2023-04-24T09:10:09;12.40;99.90
4697;DHT22;2362;50.780;0.292;2023-04-24T09:12:35;12.30;99.90
4697;DHT22;2362;50.780;0.292;2023-04-24T09:15:02;12.40;99.90
4697;DHT22;2362;50.780;0.292;2023-04-24T09:17:30;12.20;99.90
4697;DHT22;2362;50.780;0.292;2023-04-24T09:19:55;12.30;99.90
4697;DHT22;2362;50.780;0.292;2023-04-24T09:22:21;12.50;99.90
4697;DHT22;2362;50.780;0.292;2023-04-24T09:24:48;12.40;99.90
4697;DHT22;2362;50.780;0.292;2023-04-24T09:27:13;12.30;99.90
4697;DHT22;2362;50.780;0.292;2023-04-24T09:30:08;12.20;99.90
4697;DHT22;2362;50.780;0.292;2023-04-24T09:32:34;12.70;99.90
4697;DHT22;2362;50.780;0.292;2023-04-24T09:37:38;13.30;99.90
4697;DHT22;2362;50.780;0.292;2023-04-24T09:40:21;13.10;99.90
4697;DHT22;2362;50.780;0.292;2023-04-24T09:42:56;13.20;99.90
4697;DHT22;2362;50.780;0.292;2023-04-24T09:45:43;13.50;99.90
4697;DHT22;2362;50.780;0.292;2023-04-24T09:48:09;13.80;99.90
4697;DHT22;2362;50.780;0.292;2023-04-24T09:50:35;14.00;99.90
4697;DHT22;2362;50.780;0.292;2023-04-24T09:53:03;13.70;99.90
4697;DHT22;2362;50.780;0.292;2023-04-24T09:55:29;13.60;99.90
4697;DHT22;2362;50.780;0.292;2023-04-24T09:57:57;13.60;99.90
4697;DHT22;2362;50.780;0.292;2023-04-24T10:00:24;13.70;99.90
4697;DHT22;2362;50.780;0.292;2023-04-24T10:02:58;13.80;99.90
4697;DHT22;2362;50.780;0.292;2023-04-24T10:05:33;13.80;99.90
4697;DHT22;2362;50.780;0.292;2023-04-24T10:08:07;13.90;99.90
4697;DHT22;2362;50.780;0.292;2023-04-24T10:10:37;14.00;99.90
4697;DHT22;2362;50.780;0.292;2023-04-24T10:13:04;14.10;99.90
4697;DHT22;2362;50.780;0.292;2023-04-24T10:15:30;14.40;99.90
4697;DHT22;2362;50.780;0.292;2023-04-24T10:17:58;14.40;99.90
4697;DHT22;2362;50.780;0.292;2023-04-24T10:20:26;14.30;99.90
4697;DHT22;2362;50.780;0.292;2023-04-24T10:22:53;14.10;99.90
4697;DHT22;2362;50.780;0.292;2023-04-24T10:25:39;13.90;99.90
4697;DHT22;2362;50.780;0.292;2023-04-24T10:28:06;14.10;99.90
4697;DHT22;2362;50.780;0.292;2023-04-24T10:30:34;13.80;99.90
4697;DHT22;2362;50.780;0.292;2023-04-24T10:33:04;13.80;99.90
4697;DHT22;2362;50.780;0.292;2023-04-24T10:35:37;13.80;99.90
4697;DHT22;2362;50.780;0.292;2023-04-24T10:38:09;13.90;99.90
4697;DHT22;2362;50.780;0.292;2023-04-24T10:40:36;14.00;99.90
4697;DHT22;2362;50.780;0.292;2023-04-24T10:43:06;14.10;99.90
4697;DHT22;2362;50.780;0.292;2023-04-24T10:45:34;14.10;99.90
4697;DHT22;2362;50.780;0.292;2023-04-24T10:48:09;14.30;99.90
4697;DHT22;2362;50.780;0.292;2023-04-24T10:51:05;14.50;99.90
4697;DHT22;2362;50.780;0.292;2023-04-24T10:53:36;14.70;99.90
4697;DHT22;2362;50.780;0.292;2023-04-24T10:56:06;14.90;99.90
4697;DHT22;2362;50.780;0.292;2023-04-24T10:58:37;14.90;99.90
4697;DHT22;2362;50.780;0.292;2023-04-24T11:01:04;14.90;99.90
4697;DHT22;2362;50.780;0.292;2023-04-24T11:03:34;15.00;99.90
4697;DHT22;2362;50.780;0.292;2023-04-24T11:06:05;14.80;99.90
4697;DHT22;2362;50.780;0.292;2023-04-24T11:11:11;14.60;99.90
4697;DHT22;2362;50.780;0.292;2023-04-24T11:16:39;14.50;99.90
4697;DHT22;2362;50.780;0.292;2023-04-24T11:19:25;14.40;99.90
4697;DHT22;2362;50.780;0.292;2023-04-24T11:21:59;14.20;99.90
4697;DHT22;2362;50.780;0.292;2023-04-24T11:24:39;14.30;99.90
4697;DHT22;2362;50.780;0.292;2023-04-24T11:27:13;13.80;99.90
4697;DHT22;2362;50.780;0.292;2023-04-24T11:29:47;14.00;99.90
4697;DHT22;2362;50.780;0.292;2023-04-24T11:35:08;13.70;99.90
4697;DHT22;2362;50.780;0.292;2023-04-24T11:37:38;13.50;99.90
4697;DHT22;2362;50.780;0.292;2023-04-24T11:40:06;13.20;99.90
4697;DHT22;2362;50.780;0.292;2023-04-24T11:42:40;13.40;99.90
4697;DHT22;2362;50.780;0.292;2023-04-24T11:47:35;13.40;99.90
4697;DHT22;2362;50.780;0.292;2023-04-24T11:50:02;13.70;99.90
4697;DHT22;2362;50.780;0.292;2023-04-24T11:52:29;13.80;99.90
4697;DHT22;2362;50.780;0.292;2023-04-24T11:54:55;13.70;99.90
4697;DHT22;2362;50.780;0.292;2023-04-24T11:57:22;13.70;99.90
4697;DHT22;2362;50.780;0.292;2023-04-24T11:59:49;13.70;99.90
4697;DHT22;2362;50.780;0.292;2023-04-24T12:02:25;13.40;99.90
4697;DHT22;2362;50.780;0.292;2023-04-24T12:04:54;13.70;99.90
4697;DHT22;2362;50.780;0.292;2023-04-24T12:07:20;13.80;99.90
4697;DHT22;2362;50.780;0.292;2023-04-24T12:09:49;13.40;99.90
4697;DHT22;2362;50.780;0.292;2023-04-24T12:12:16;13.40;99.90
4697;DHT22;2362;50.780;0.292;2023-04-24T12:14:52;13.30;99.90
4697;DHT22;2362;50.780;0.292;2023-04-24T12:17:30;13.30;99.90
4697;DHT22;2362;50.780;0.292;2023-04-24T12:20:05;13.20;99.90
4697;DHT22;2362;50.780;0.292;2023-04-24T12:22:47;13.20;99.90
4697;DHT22;2362;50.780;0.292;2023-04-24T12:25:14;13.20;99.90
4697;DHT22;2362;50.780;0.292;2023-04-24T12:27:40;13.10;99.90
4697;DHT22;2362;50.780;0.292;2023-04-24T12:30:11;13.20;99.90
4697;DHT22;2362;50.780;0.292;2023-04-24T12:32:45;13.30;99.90
4697;DHT22;2362;50.780;0.292;2023-04-24T12:35:11;13.30;99.90
4697;DHT22;2362;50.780;0.292;2023-04-24T12:37:42;13.20;99.90
4697;DHT22;2362;50.780;0.292;2023-04-24T12:40:10;13.20;99.90
4697;DHT22;2362;50.780;0.292;2023-04-24T12:42:45;13.20;99.90
4697;DHT22;2362;50.780;0.292;2023-04-24T12:45:11;13.40;99.90
4697;DHT22;2362;50.780;0.292;2023-04-24T12:47:38;13.50;99.90
4697;DHT22;2362;50.780;0.292;2023-04-24T12:50:04;13.60;99.90
4697;DHT22;2362;50.780;0.292;2023-04-24T12:52:31;13.60;99.90
4697;DHT22;2362;50.780;0.292;2023-04-24T12:54:59;13.50;99.90
4697;DHT22;2362;50.780;0.292;2023-04-24T12:57:26;13.60;99.90
4697;DHT22;2362;50.780;0.292;2023-04-24T12:59:57;13.60;99.90
4697;DHT22;2362;50.780;0.292;2023-04-24T13:02:28;13.50;99.90
4697;DHT22;2362;50.780;0.292;2023-04-24T13:04:57;13.60;99.90
4697;DHT22;2362;50.780;0.292;2023-04-24T13:07:23;13.70;99.90
4697;DHT22;2362;50.780;0.292;2023-04-24T13:09:50;13.40;99.90
4697;DHT22;2362;50.780;0.292;2023-04-24T13:12:16;13.60;99.90
4697;DHT22;2362;50.780;0.292;2023-04-24T13:14:42;13.70;99.90
4697;DHT22;2362;50.780;0.292;2023-04-24T13:17:07;13.80;99.90
4697;DHT22;2362;50.780;0.292;2023-04-24T13:19:39;14.00;99.90
4697;DHT22;2362;50.780;0.292;2023-04-24T13:22:05;14.00;99.90
4697;DHT22;2362;50.780;0.292;2023-04-24T13:24:31;13.90;99.90
4697;DHT22;2362;50.780;0.292;2023-04-24T13:26:57;14.00;99.90
4697;DHT22;2362;50.780;0.292;2023-04-24T13:29:23;13.90;99.90
4697;DHT22;2362;50.780;0.292;2023-04-24T13:31:53;14.00;99.90
4697;DHT22;2362;50.780;0.292;2023-04-24T13:34:24;14.00;99.90
4697;DHT22;2362;50.780;0.292;2023-04-24T13:36:55;13.90;99.90
4697;DHT22;2362;50.780;0.292;2023-04-24T13:39:22;13.80;99.90
4697;DHT22;2362;50.780;0.292;2023-04-24T13:41:48;13.70;99.90
4697;DHT22;2362;50.780;0.292;2023-04-24T13:44:15;13.70;99.90
4697;DHT22;2362;50.780;0.292;2023-04-24T13:46:41;13.80;99.90
4697;DHT22;2362;50.780;0.292;2023-04-24T13:49:09;14.10;99.90
4697;DHT22;2362;50.780;0.292;2023-04-24T13:51:34;14.10;99.90
4697;DHT22;2362;50.780;0.292;2023-04-24T13:54:00;14.20;99.90
4697;DHT22;2362;50.780;0.292;2023-04-24T13:56:26;14.10;99.90
4697;DHT22;2362;50.780;0.292;2023-04-24T13:58:52;14.00;99.90
4697;DHT22;2362;50.780;0.292;2023-04-24T14:01:19;13.80;99.90
4697;DHT22;2362;50.780;0.292;2023-04-24T14:03:45;13.80;99.90
4697;DHT22;2362;50.780;0.292;2023-04-24T14:06:10;13.70;99.90
4697;DHT22;2362;50.780;0.292;2023-04-24T14:08:36;13.70;99.90
4697;DHT22;2362;50.780;0.292;2023-04-24T14:11:02;13.60;99.90
4697;DHT22;2362;50.780;0.292;2023-04-24T14:13:28;13.40;99.90
4697;DHT22;2362;50.780;0.292;2023-04-24T14:15:54;13.70;99.90
4697;DHT22;2362;50.780;0.292;2023-04-24T14:18:20;13.90;99.90
4697;DHT22;2362;50.780;0.292;2023-04-24T14:20:46;14.10;99.90
4697;DHT22;2362;50.780;0.292;2023-04-24T14:23:11;14.10;99.90
4697;DHT22;2362;50.780;0.292;2023-04-24T14:25:37;14.30;99.90
4697;DHT22;2362;50.780;0.292;2023-04-24T14:28:02;14.50;99.90
4697;DHT22;2362;50.780;0.292;2023-04-24T14:30:28;14.80;99.90
4697;DHT22;2362;50.780;0.292;2023-04-24T14:32:54;14.70;99.90
4697;DHT22;2362;50.780;0.292;2023-04-24T14:35:20;14.90;99.90
4697;DHT22;2362;50.780;0.292;2023-04-24T14:37:45;15.00;99.90
4697;DHT22;2362;50.780;0.292;2023-04-24T14:40:11;14.70;99.90
4697;DHT22;2362;50.780;0.292;2023-04-24T14:42:37;14.60;99.90
4697;DHT22;2362;50.780;0.292;2023-04-24T14:45:02;14.60;99.90
4697;DHT22;2362;50.780;0.292;2023-04-24T14:47:28;14.60;99.90
4697;DHT22;2362;50.780;0.292;2023-04-24T14:49:54;14.50;99.90
4697;DHT22;2362;50.780;0.292;2023-04-24T14:52:20;14.30;99.90
4697;DHT22;2362;50.780;0.292;2023-04-24T14:54:46;14.30;99.90
4697;DHT22;2362;50.780;0.292;2023-04-24T14:57:11;14.30;99.90
4697;DHT22;2362;50.780;0.292;2023-04-24T14:59:37;14.10;99.90
4697;DHT22;2362;50.780;0.292;2023-04-24T15:02:03;14.20;99.90
4697;DHT22;2362;50.780;0.292;2023-04-24T15:04:28;14.10;99.90
4697;DHT22;2362;50.780;0.292;2023-04-24T15:06:56;14.20;99.90
4697;DHT22;2362;50.780;0.292;2023-04-24T15:09:23;14.20;99.90
4697;DHT22;2362;50.780;0.292;2023-04-24T15:11:49;14.00;99.90
4697;DHT22;2362;50.780;0.292;2023-04-24T15:14:16;13.80;99.90
4697;DHT22;2362;50.780;0.292;2023-04-24T15:16:42;13.60;99.90
4697;DHT22;2362;50.780;0.292;2023-04-24T15:19:08;13.50;99.90
4697;DHT22;2362;50.780;0.292;2023-04-24T15:21:35;13.30;99.90
4697;DHT22;2362;50.780;0.292;2023-04-24T15:24:01;13.40;99.90
4697;DHT22;2362;50.780;0.292;2023-04-24T15:26:27;13.40;99.90
4697;DHT22;2362;50.780;0.292;2023-04-24T15:28:52;13.20;99.90
4697;DHT22;2362;50.780;0.292;2023-04-24T15:31:18;13.20;99.90
4697;DHT22;2362;50.780;0.292;2023-04-24T15:33:44;13.10;99.90
4697;DHT22;2362;50.780;0.292;2023-04-24T15:36:10;13.20;99.90
4697;DHT22;2362;50.780;0.292;2023-04-24T15:38:39;13.20;99.90
4697;DHT22;2362;50.780;0.292;2023-04-24T15:41:05;13.40;99.90
4697;DHT22;2362;50.780;0.292;2023-04-24T15:43:30;13.50;99.90
4697;DHT22;2362;50.780;0.292;2023-04-24T15:45:59;13.60;99.90
4697;DHT22;2362;50.780;0.292;2023-04-24T15:48:25;13.30;99.90
4697;DHT22;2362;50.780;0.292;2023-04-24T15:50:50;13.50;99.90
4697;DHT22;2362;50.780;0.292;2023-04-24T15:53:16;13.80;99.90
4697;DHT22;2362;50.780;0.292;2023-04-24T15:55:49;14.10;99.90
4697;DHT22;2362;50.780;0.292;2023-04-24T15:58:15;14.20;99.90
4697;DHT22;2362;50.780;0.292;2023-04-24T16:00:40;14.20;99.90
4697;DHT22;2362;50.780;0.292;2023-04-24T16:03:06;14.10;99.90
4697;DHT22;2362;50.780;0.292;2023-04-24T16:05:34;14.00;99.90
4697;DHT22;2362;50.780;0.292;2023-04-24T16:07:59;13.90;99.90
4697;DHT22;2362;50.780;0.292;2023-04-24T16:10:26;13.90;99.90
4697;DHT22;2362;50.780;0.292;2023-04-24T16:12:52;13.80;99.90
4697;DHT22;2362;50.780;0.292;2023-04-24T16:15:19;13.70;99.90
4697;DHT22;2362;50.780;0.292;2023-04-24T16:17:47;13.40;99.90
4697;DHT22;2362;50.780;0.292;2023-04-24T16:20:13;13.40;99.90
4697;DHT22;2362;50.780;0.292;2023-04-24T16:22:39;13.10;99.90
4697;DHT22;2362;50.780;0.292;2023-04-24T16:25:09;12.90;99.90